Latest Weather Observations for Falls Creek

IDV60801

Issued at 7:02 pm EDT Wednesday 21 October 2020 (issued every 10 minutes, with the page automatically refreshed every 10 minutes)

About weather observations | Map of weather stations | Latest weather observations for VIC | Other Formats
Station Details ID: 083084 Name: FALLS CREEK Lat: -36.87 Lon: 147.28 Height: 1765.0 m
Data from the previous 72 hours. | See also: Recent months at Falls Creek
Date/Time
EDT
Temp
°C
App
Temp
°C
Dew
Point
°C
Rel
Hum
%
Delta-T
°C
Wind Press
QNH
hPa
Press
MSL
hPa
Rain since
9am
mm
Dir  Spd
km/h
Gust
km/h
Spd
kts
Gust
kts
21/07:00pm 7.4 4.6 5.2 86 1.1 NNW 9 15 5 8 1017.0 1014.7 0.0
21/06:30pm 8.0 4.8 4.9 81 1.5 N 11 17 6 9 1016.9 1014.6 0.0
21/06:00pm 8.7 4.6 4.1 73 2.2 NNW 15 20 8 11 1016.9 1014.6 0.0
21/05:30pm 9.0 4.9 4.6 74 2.2 NNW 15 20 8 11 1016.7 1014.4 0.0
21/05:00pm 9.2 4.7 4.2 71 2.4 N 17 24 9 13 1016.5 1014.2 0.0
21/04:30pm 9.3 4.8 2.4 62 3.3 N 15 24 8 13 1016.7 1014.4 0.0
21/04:00pm 10.6 5.4 2.7 58 3.8 N 19 30 10 16 1016.7 1014.4 0.0
21/03:30pm 10.0 4.7 1.9 57 3.8 N 19 26 10 14 1016.8 1014.5 0.0
21/03:00pm 10.0 4.4 3.3 63 3.2 N 22 30 12 16 1016.8 1014.5 0.0
21/02:30pm 9.6 4.6 1.5 57 3.7 NNW 17 26 9 14 1017.1 1014.8 0.0
21/02:00pm 10.2 4.9 3.0 61 3.5 NNW 20 30 11 16 1017.3 1015.0 0.0
21/01:30pm 9.3 3.8 1.7 59 3.5 NNW 20 35 11 19 1017.1 1014.8 0.0
21/01:00pm 8.6 2.4 2.4 65 2.9 NNW 24 33 13 18 1017.3 1015.0 0.0
21/12:30pm 8.7 1.4 2.5 65 2.9 N 30 46 16 25 1017.3 1015.0 0.0
21/12:00pm 8.3 0.7 2.8 68 2.6 NNW 32 46 17 25 1017.3 1015.0 0.0
21/11:36am 8.5 1.3 2.9 68 2.7 N 30 48 16 26 1017.5 1015.2 0.0
21/11:30am 9.0 1.8 2.8 65 2.9 NNW 30 44 16 24 1017.5 1015.2 0.0
21/11:00am 8.4 0.9 3.5 71 2.3 N 32 46 17 25 1017.7 1015.5 0.0
21/10:30am 7.3 1.5 4.4 82 1.4 NNW 24 35 13 19 1017.9 1015.6 0.0
21/10:00am 6.9 0.6 4.0 82 1.4 NNW 26 39 14 21 1017.6 1015.3 0.0
21/09:30am 6.5 0.0 4.8 89 0.8 NNW 28 35 15 19 1017.5 1015.2 0.0
21/09:00am 5.8 -0.8 4.4 91 0.7 NNW 28 35 15 19 1017.3 1015.0 0.0
21/08:30am 5.6 -1.3 4.4 92 0.6 NNW 30 39 16 21 1016.9 1014.6 0.0
21/08:00am 6.0 -0.5 4.6 91 0.7 NNW 28 37 15 20 1016.8 1014.5 0.0
21/07:30am 5.2 -0.6 4.3 94 0.4 NNW 24 32 13 17 1016.9 1014.6 0.0
21/07:00am 4.7 -1.6 3.8 94 0.4 NNW 26 33 14 18 1016.7 1014.4 0.0
21/06:30am 4.5 -1.8 3.5 93 0.5 NNW 26 32 14 17 1016.4 1014.1 0.0
21/06:00am 4.5 -1.5 3.3 92 0.6 NNW 24 33 13 18 1016.3 1014.0 0.0
21/05:30am 4.6 -1.1 3.1 90 0.7 NNW 22 28 12 15 1016.3 1014.0 0.0
21/05:00am 4.7 -1.0 3.0 89 0.8 NNW 22 32 12 17 1016.2 1013.9 0.0
21/04:30am 4.7 -1.4 3.0 89 0.8 NNW 24 32 13 17 1016.2 1013.9 0.0
21/04:00am 4.8 -0.8 3.5 91 0.6 NNW 22 28 12 15 1016.3 1014.0 0.0
21/03:30am 4.8 -1.5 3.8 93 0.5 NNW 26 30 14 16 1016.2 1013.9 0.0
21/03:00am 4.8 -1.1 4.1 95 0.3 NNW 24 33 13 18 1016.5 1014.2 0.0
21/02:30am 5.0 -1.2 4.1 94 0.4 NNW 26 37 14 20 1016.5 1014.2 0.0
21/02:00am 5.0 -1.6 4.0 93 0.5 NNW 28 33 15 18 1016.8 1014.5 0.0
21/01:30am 5.1 -1.1 4.1 93 0.5 NNW 26 33 14 18 1017.1 1014.8 0.0
21/01:00am 5.3 -0.6 4.1 92 0.6 NNW 24 32 13 17 1017.6 1015.3 0.0
21/12:30am 5.3 -0.5 4.3 93 0.5 NNW 24 30 13 16 1018.0 1015.7 0.0
21/12:00am 5.3 -0.1 4.6 95 0.3 NNW 22 28 12 15 1018.1 1015.8 0.0
 
Date/Time
EDT
Temp
°C
App
Temp
°C
Dew
Point
°C
Rel
Hum
%
Delta-T
°C
Wind Press
QNH
hPa
Press
MSL
hPa
Rain since
9am
mm
Dir  Spd
km/h
Gust
km/h
Spd
kts
Gust
kts
20/11:30pm 5.4 0.0 4.5 94 0.4 NNW 22 28 12 15 1018.4 1016.2 0.0
20/11:00pm 5.5 0.7 4.6 94 0.4 NNW 19 26 10 14 1018.6 1016.3 0.0
20/10:30pm 5.5 1.1 4.5 93 0.5 NNW 17 22 9 12 1018.8 1016.6 0.0
20/10:00pm 5.4 1.2 3.9 90 0.7 NNW 15 20 8 11 1018.7 1016.5 0.0
20/09:30pm 5.5 0.9 3.7 88 0.8 NNW 17 22 9 12 1018.8 1016.6 0.0
20/09:00pm 5.4 1.2 3.6 88 0.8 NNW 15 20 8 11 1018.8 1016.6 0.0
20/08:30pm 5.1 1.6 3.4 89 0.8 NNW 11 15 6 8 1018.7 1016.5 0.0
20/08:00pm 5.6 1.7 3.4 86 1.0 NNW 13 17 7 9 1018.7 1016.5 0.0
20/07:30pm 6.0 2.2 4.0 87 1.0 NW 13 15 7 8 1018.4 1016.2 0.0
20/07:00pm 7.3 4.0 4.4 82 1.4 NW 11 15 6 8 1018.3 1016.1 0.0
20/06:30pm 7.7 4.0 4.7 81 1.5 NNW 13 19 7 10 1018.2 1016.0 0.0
20/06:00pm 8.4 4.7 4.6 77 1.9 NNW 13 24 7 13 1018.3 1016.1 0.0
20/05:30pm 9.4 5.7 4.4 71 2.5 NW 13 20 7 11 1018.3 1016.1 0.0
20/05:00pm 10.1 6.1 4.9 70 2.6 NW 15 24 8 13 1018.3 1016.1 0.0
20/04:30pm 9.7 5.2 4.3 69 2.7 N 17 26 9 14 1018.2 1016.0 0.0
20/04:00pm 9.9 5.4 4.1 67 2.8 N 17 26 9 14 1018.3 1016.1 0.0
20/03:30pm 10.3 5.8 4.0 65 3.1 N 17 26 9 14 1018.4 1016.2 0.0
20/03:00pm 9.8 5.1 3.1 63 3.2 N 17 26 9 14 1018.7 1016.5 0.0
20/02:30pm 10.0 5.2 2.8 61 3.4 N 17 32 9 17 1019.0 1016.8 0.0
20/02:00pm 9.2 3.9 3.0 65 3.0 NNW 20 30 11 16 1019.2 1016.9 0.0
20/01:30pm 9.2 4.1 3.2 66 2.9 N 19 30 10 16 1019.2 1016.9 0.0
20/01:00pm 8.7 3.2 2.1 63 3.1 N 20 33 11 18 1019.2 1016.9 0.0
20/12:30pm 9.0 3.7 1.9 61 3.3 N 19 28 10 15 1019.3 1017.1 0.0
20/12:00pm 8.3 2.1 1.9 64 3.0 N 24 33 13 18 1019.3 1017.1 0.0
20/11:30am 7.7 1.5 2.4 69 2.5 N 24 32 13 17 1019.4 1017.2 0.0
20/11:00am 7.6 1.5 2.7 71 2.3 N 24 35 13 19 1019.3 1017.1 0.0
20/10:30am 7.3 2.1 3.5 77 1.8 N 20 33 11 18 1019.3 1017.1 0.0
20/10:00am 6.3 0.7 3.3 81 1.4 N 22 32 12 17 1019.0 1016.8 0.0
20/09:30am 5.7 -0.4 2.7 81 1.4 N 24 37 13 20 1018.8 1016.6 0.0
20/09:00am 5.5 -0.5 3.2 85 1.1 NNW 24 35 13 19 1018.4 1016.2 0.4
20/08:30am 4.6 -1.4 3.3 91 0.6 NNW 24 35 13 19 1018.4 1016.2 0.4
20/08:00am 4.3 -2.1 3.4 94 0.4 NNW 26 39 14 21 1018.1 1015.8 0.4
20/07:30am 4.0 -2.7 3.6 97 0.2 NNW 28 37 15 20 1017.9 1015.6 0.4
20/07:00am 3.7 -2.3 3.4 98 0.1 NNW 24 33 13 18 1017.7 1015.5 0.4
20/06:30am 3.5 -2.6 2.9 96 0.3 NNW 24 33 13 18 1017.7 1015.5 0.4
20/06:00am 3.7 -3.3 1.9 88 0.8 NNW 28 37 15 20 1017.4 1015.1 0.4
20/05:30am 4.1 -3.2 2.5 89 0.7 NNW 30 37 16 20 1017.3 1015.0 0.4
20/05:00am 4.3 -2.8 3.4 94 0.4 NNW 30 39 16 21 1017.1 1014.8 0.4
20/04:30am 4.5 -2.2 3.8 95 0.3 NNW 28 37 15 20 1017.1 1014.8 0.4
20/04:00am 4.5 -2.1 4.1 97 0.2 NNW 28 39 15 21 1017.3 1015.0 0.4
20/03:30am 4.2 -1.3 3.8 97 0.2 NNW 22 32 12 17 1017.5 1015.2 0.2
20/03:00am 3.7 -1.0 3.4 98 0.1 N 17 20 9 11 1017.7 1015.5 0.2
20/02:30am 3.6 -0.3 3.2 97 0.2 N 13 17 7 9 1017.9 1015.6 0.2
20/02:00am 3.6 -1.1 3.2 97 0.2 N 17 24 9 13 1018.1 1015.8 0.2
20/01:30am 3.8 -0.5 3.2 96 0.3 NNE 15 20 8 11 1018.3 1016.1 0.2
20/01:00am 3.6 0.4 3.3 98 0.1 NNE 9 11 5 6 1018.8 1016.6 0.2
20/12:30am 3.6 0.8 3.0 96 0.3 N 7 9 4 5 1018.9 1016.7 0.2
20/12:00am 3.4 0.5 2.8 96 0.3 NNE 7 9 4 5 1019.0 1016.8 0.2
 
Date/Time
EDT
Temp
°C
App
Temp
°C
Dew
Point
°C
Rel
Hum
%
Delta-T
°C
Wind Press
QNH
hPa
Press
MSL
hPa
Rain since
9am
mm
Dir  Spd
km/h
Gust
km/h
Spd
kts
Gust
kts
19/11:30pm 3.4 0.8 3.3 99 0.0 NE 6 11 3 6 1018.9 1016.7 0.2
19/11:00pm 3.8 1.3 3.7 99 0.0 ESE 6 7 3 4 1019.0 1016.8 0.2
19/10:30pm 3.8 1.3 3.7 99 0.0 SE 6 7 3 4 1019.0 1016.8 0.0
19/10:00pm 4.0 1.5 3.9 99 0.0 SE 6 7 3 4 1019.2 1016.9 0.0
19/09:30pm 4.3 1.9 4.2 99 0.0 SE 6 9 3 5 1019.2 1016.9 0.0
19/09:00pm 4.6 2.2 4.5 99 0.0 SSE 6 9 3 5 1019.0 1016.8 0.0
19/08:30pm 5.0 2.5 4.9 99 0.0 SE 7 11 4 6 1018.8 1016.6 0.0
19/08:00pm 5.2 2.3 4.8 97 0.2 SE 9 15 5 8 1018.6 1016.3 0.0
19/07:30pm 5.5 2.6 4.9 96 0.3 SE 9 13 5 7 1018.4 1016.2 0.0
19/07:00pm 5.8 3.4 5.1 95 0.3 ENE 7 11 4 6 1018.3 1016.1 0.0
19/06:30pm 6.6 4.8 5.2 91 0.7 N 4 7 2 4 1018.3 1016.1 0.0
19/06:00pm 6.8 4.0 5.0 88 0.9 N 9 15 5 8 1018.1 1015.8 0.0
19/05:30pm 6.8 3.5 4.8 87 1.0 NNW 11 19 6 10 1018.0 1015.7 0.0
19/05:00pm 7.7 4.5 5.2 84 1.2 NNW 11 19 6 10 1018.0 1015.7 0.0
19/04:30pm 9.2 5.4 5.6 78 1.8 NNW 15 24 8 13 1017.9 1015.6 0.0
19/04:00pm 10.1 6.6 5.5 73 2.3 NW 13 22 7 12 1017.9 1015.6 0.0
19/03:30pm 9.9 6.3 4.9 71 2.5 WNW 13 20 7 11 1017.9 1015.6 0.0
19/03:00pm 10.0 7.1 4.8 70 2.6 NW 9 22 5 12 1017.9 1015.6 0.0
19/02:30pm 8.9 5.4 3.7 70 2.5 WNW 11 19 6 10 1018.1 1015.8 0.0
19/02:00pm 7.9 4.1 4.1 77 1.8 NW 13 22 7 12 1018.1 1015.8 0.0
19/01:30pm 8.1 4.2 3.2 71 2.3 NNW 13 24 7 13 1018.0 1015.7 0.0
19/01:00pm 7.1 2.8 3.0 75 1.9 NNW 15 26 8 14 1017.5 1015.2 0.0
19/12:30pm 8.1 3.5 3.6 73 2.2 NNW 17 30 9 16 1017.5 1015.2 0.0
19/12:00pm 7.3 2.2 2.8 73 2.1 NNW 19 28 10 15 1017.4 1015.1 0.0
19/11:30am 6.6 1.5 3.2 79 1.6 NNW 19 30 10 16 1017.4 1015.1 0.0
19/11:00am 5.8 1.1 3.0 82 1.3 NW 17 26 9 14 1017.4 1015.1 0.0
19/10:30am 4.9 0.6 3.1 88 0.8 NW 15 24 8 13 1017.1 1014.8 0.0
19/10:00am 4.9 -0.8 2.9 87 0.9 NW 22 39 12 21 1016.8 1014.5 0.0
19/09:30am 3.7 -2.0 2.7 93 0.5 NNW 22 32 12 17 1016.5 1014.2 0.0
19/09:00am 3.3 -2.3 3.2 99 0.0 NNW 22 32 12 17 1016.3 1014.0 0.4
19/08:30am 3.5 -1.5 3.4 99 0.0 NNW 19 30 10 16 1016.2 1013.9 0.4
19/08:00am 3.2 -2.5 3.1 99 0.0 NNW 22 30 12 16 1015.9 1013.6 0.4
19/07:30am 2.9 -1.9 2.8 99 0.0 NNW 17 30 9 16 1015.8 1013.5 0.4
19/07:00am 3.1 -1.6 3.0 99 0.0 NNW 17 28 9 15 1015.7 1013.4 0.4
19/06:30am 2.7 -2.7 2.6 99 0.0 NW 20 26 11 14 1015.4 1013.0 0.4
19/06:00am 2.7 -2.7 2.6 99 0.0 NW 20 26 11 14 1015.0 1012.6 0.4
19/05:30am 2.8 -2.6 2.7 99 0.0 NNW 20 26 11 14 1014.9 1012.5 0.4
19/05:00am 2.7 -2.5 2.6 99 0.0 NW 19 24 10 13 1014.9 1012.5 0.4
19/04:30am 2.8 -2.4 2.7 99 0.0 NW 19 24 10 13 1014.9 1012.5 0.4
19/04:00am 2.9 -2.2 2.8 99 0.0 NW 19 24 10 13 1015.0 1012.6 0.2
19/03:30am 2.9 -2.4 2.8 99 0.0 NW 20 24 11 13 1015.0 1012.6 0.2
19/03:00am 3.0 -2.3 2.9 99 0.0 NW 20 28 11 15 1015.1 1012.7 0.2
19/02:30am 2.9 -1.9 2.8 99 0.0 NW 17 20 9 11 1015.5 1013.1 0.2
19/02:00am 2.4 -1.7 2.3 99 0.0 WNW 13 15 7 8 1015.8 1013.5 0.2
19/01:30am 2.6 -0.3 2.5 99 0.0 WNW 7 11 4 6 1016.2 1013.9 0.2
19/01:00am 1.8 0.1 1.7 99 0.0 CALM 0 0 0 0 1016.5 1014.2 0.2
19/12:30am 1.8 -0.3 1.7 99 0.0 S 2 6 1 3 1016.5 1014.2 0.2
19/12:00am 2.0 -0.4 1.9 99 0.0 SW 4 11 2 6 1016.4 1014.1 0.2
 
Date/Time
EDT
Temp
°C
App
Temp
°C
Dew
Point
°C
Rel
Hum
%
Delta-T
°C
Wind Press
QNH
hPa
Press
MSL
hPa
Rain since
9am
mm
Dir  Spd
km/h
Gust
km/h
Spd
kts
Gust
kts
18/11:30pm 2.5 -0.2 2.4 99 0.0 NW 6 7 3 4 1016.3 1014.0 0.2
18/11:00pm 1.9 -0.6 1.8 99 0.0 SE 4 9 2 5 1016.4 1014.1 0.2
18/10:30pm 1.8 -1.2 1.7 99 0.0 SSE 7 11 4 6 1016.4 1014.1 0.2
18/10:00pm 1.8 -1.2 1.7 99 0.0 SSE 7 11 4 6 1016.4 1014.1 0.2
18/09:30pm 2.1 -1.3 2.0 99 0.0 SSE 9 11 5 6 1016.3 1014.0 0.2
18/09:00pm 2.1 -1.3 2.0 99 0.0 SSE 9 13 5 7 1016.1 1013.7 0.2
18/08:30pm 2.3 -1.8 2.2 99 0.0 SSE 13 17 7 9 1016.1 1013.7 0.2
18/08:00pm 2.7 -1.3 2.6 99 0.0 SSE 13 17 7 9 1015.8 1013.5 0.2
18/07:30pm 2.9 -1.5 2.8 99 0.0 SSE 15 19 8 10 1015.5 1013.1 0.2

Other formats

Comma delimited format used in spreadsheet applications
http://www.bom.gov.au/fwo/IDV60801/IDV60801.94903.axf

JavaScript Object Notation format (JSON) in row-major order
http://www.bom.gov.au/fwo/IDV60801/IDV60801.94903.json

Data quality

Most of these data are generated automatically and are frequently updated. Quality checks on data are not normally performed. It is possible for incorrect values to appear. Refer to information at About Latest Weather Observations and please check the disclaimer before using these data.